Vision of The Seas — C6SE8 — position and weather

sailwx.info

Track history (hours):
 
Tides and Currents Weather Stations Pressure Air Temp Water Temp Dewpoint Dewpoint Depression Visibility Wind Speed Wind Dir Waves Ship Positions

Vision of The Seas

Operator: Royal Caribbean Cruises Ltd

Last reported at 2016-Dec-02 15:23 UTC. Time now 2017-Mar-28 19:42 UTC.
Position N 32°48' E 034°26'.
Warning: this ship's position is months out of date.

Type: Passenger vessel. MMSI: 311321000.

Date/timePositionNaut miles runAvg speedWind from/ knotsBaromVisibWave heightAir tempDewpointWater temp
2016-Dec-02 15:23N 32°48' E 034°26'1616.3
2016-Dec-02 14:26N 32°54' E 034°43'1517.4
2016-Dec-02 13:33N 32°51' E 035°01'2 1.5
2016-Dec-02 12:29N 32°49' E 035°00'0 0.0
2016-Dec-02 11:29N 32°49' E 035°00'0 0.0
2016-Dec-02 10:32N 32°49' E 035°00'0 0.0
2016-Dec-02 09:32N 32°49' E 035°00'0 0.0
2016-Dec-02 08:32N 32°49' E 035°00'0 0.0
2016-Dec-02 07:32N 32°49' E 035°00'0 0.0
2016-Dec-02 06:32N 32°49' E 035°00'0 0.0
2016-Dec-02 05:29N 32°49' E 035°00'0 0.0
2016-Dec-02 04:32N 32°49' E 035°00'0 0.0
2016-Dec-02 03:32N 32°49' E 035°00'0 0.0
2016-Dec-02 02:29N 32°49' E 035°00'0 0.0
2016-Dec-02 01:32N 32°49' E 035°00'0 0.0
2016-Dec-02 00:32N 32°49' E 035°00'0 0.0
2016-Dec-01 23:32N 32°49' E 035°00'0 0.0
2016-Dec-01 22:29N 32°49' E 035°00'0 0.0
2016-Dec-01 21:32N 32°49' E 035°00'0 0.0
2016-Dec-01 20:32N 32°49' E 035°00'0 0.0
2016-Dec-01 19:32N 32°49' E 035°00'0 0.0
2016-Dec-01 18:32N 32°49' E 035°00'0 0.0
2016-Dec-01 17:17N 32°49' E 035°00'0 0.0
2016-Dec-01 16:32N 32°49' E 035°00'0 0.0
2016-Dec-01 15:32N 32°49' E 035°00'0 0.0
2016-Dec-01 14:29N 32°49' E 035°00'0 0.0
2016-Dec-01 13:32N 32°49' E 035°00'0 0.0
2016-Dec-01 12:29N 32°49' E 035°00'0 0.0
2016-Dec-01 11:32N 32°49' E 035°00'0 0.0
2016-Dec-01 10:29N 32°49' E 035°00'0 0.0
2016-Dec-01 09:32N 32°49' E 035°00'0 0.0
2016-Dec-01 08:32N 32°49' E 035°00'0 0.0
2016-Dec-01 07:32N 32°49' E 035°00'0 0.0
2016-Dec-01 06:32N 32°49' E 035°00'2 1.6
2016-Dec-01 05:33N 32°51' E 035°01'1111.3
2016-Dec-01 04:33N 32°54' E 034°48'1615.7
2016-Dec-01 03:31N 32°58' E 034°29'59817.6
2016-Nov-29 17:33N 37°39' E 023°43'1817.7
2016-Nov-29 16:33N 37°56' E 023°37'1 1.1
2016-Nov-29 15:31N 37°56' E 023°38'0 0.0
2016-Nov-29 14:31N 37°56' E 023°38'0 0.0
2016-Nov-29 13:31N 37°56' E 023°38'0 0.0
2016-Nov-29 12:31N 37°56' E 023°38'0 0.0
2016-Nov-29 11:31N 37°56' E 023°38'0 0.0
2016-Nov-29 10:31N 37°56' E 023°38'0 0.0
2016-Nov-29 09:31N 37°56' E 023°38'0 0.0
2016-Nov-29 08:31N 37°56' E 023°38'0 0.0
2016-Nov-29 07:31N 37°56' E 023°38'0 0.0
2016-Nov-29 06:31N 37°56' E 023°38'0 0.0
2016-Nov-29 05:33N 37°56' E 023°38'1 1.5
2016-Nov-29 04:33N 37°56' E 023°37'4 4.4
2016-Nov-29 03:33N 37°52' E 023°39'1313.5
2016-Nov-29 02:33N 37°39' E 023°45'1514.8
2016-Nov-29 01:33N 37°24' E 023°45'4714.8
2016-Nov-28 22:22N 36°40' E 023°24'16112.2
2016-Nov-28 09:10N 37°42' E 020°17'48614.8
2016-Nov-27 00:15N 44°13' E 013°55'1115.5
2016-Nov-26 23:33N 44°22' E 013°46'1515.5
2016-Nov-26 22:33N 44°35' E 013°36'1615.6
2016-Nov-26 21:33N 44°48' E 013°23'1615.6
2016-Nov-26 20:33N 44°60' E 013°09'1615.8
2016-Nov-26 19:33N 45°10' E 012°52'1615.6
2016-Nov-26 18:33N 45°20' E 012°35'1110.6
2016-Nov-26 17:33N 45°25' E 012°22'2 2.5
2016-Nov-26 16:34N 45°26' E 012°19'0 0.0
2016-Nov-26 15:34N 45°26' E 012°19'0 0.0
2016-Nov-26 14:33N 45°26' E 012°19'0 0.0
2016-Nov-26 13:33N 45°26' E 012°19'0 0.0
2016-Nov-26 12:33N 45°26' E 012°19'0 0.0
2016-Nov-26 11:33N 45°26' E 012°19'0 0.0
2016-Nov-26 10:33N 45°26' E 012°19'0 0.0
2016-Nov-26 09:33N 45°26' E 012°19'0 0.0
2016-Nov-26 08:33N 45°26' E 012°19'0 0.0
2016-Nov-26 07:33N 45°26' E 012°19'0 0.0
2016-Nov-26 06:33N 45°26' E 012°19'0 0.0
2016-Nov-26 05:33N 45°26' E 012°19'4 4.1
2016-Nov-26 04:33N 45°26' E 012°24'1413.6
2016-Nov-26 03:34N 45°19' E 012°41'1615.8
2016-Nov-26 02:34N 45°10' E 012°60'1615.5
2016-Nov-26 01:34N 44°59' E 013°16'1615.6
2016-Nov-26 00:34N 44°48' E 013°31'1615.9
2016-Nov-25 23:33N 44°35' E 013°43'1615.7
2016-Nov-25 22:34N 44°21' E 013°55'1615.7
2016-Nov-25 21:33N 44°08' E 014°07'  
2016-Nov-22 20:33N 37°35' E 023°43'1616.0
2016-Nov-22 19:33N 37°50' E 023°36'7 3.3
2016-Nov-22 17:31N 37°56' E 023°38'0 0.0
2016-Nov-22 16:31N 37°56' E 023°38'0 0.0
2016-Nov-22 15:31N 37°56' E 023°38'  
Track history (hours):
 
Tides and Currents Weather Stations Pressure Air Temp Water Temp Dewpoint Dewpoint Depression Visibility Wind Speed Wind Dir Waves Ship Positions

Vision of The Seas

Operator: Royal Caribbean Cruises Ltd

Last reported at 2016-Dec-02 15:23 UTC. Time now 2017-Mar-28 19:42 UTC.
Position N 32°48' E 034°26'.
Warning: this ship's position is months out of date.

Type: Passenger vessel. MMSI: 311321000.

Date/timePositionNaut miles runAvg speedWind from/ knotsBaromVisibWave heightAir tempDewpointWater temp
2016-Dec-02 15:23N 32°48' E 034°26'1616.3
2016-Dec-02 14:26N 32°54' E 034°43'1517.4
2016-Dec-02 13:33N 32°51' E 035°01'2 1.5
2016-Dec-02 12:29N 32°49' E 035°00'0 0.0
2016-Dec-02 11:29N 32°49' E 035°00'0 0.0
2016-Dec-02 10:32N 32°49' E 035°00'0 0.0
2016-Dec-02 09:32N 32°49' E 035°00'0 0.0
2016-Dec-02 08:32N 32°49' E 035°00'0 0.0
2016-Dec-02 07:32N 32°49' E 035°00'0 0.0
2016-Dec-02 06:32N 32°49' E 035°00'0 0.0
2016-Dec-02 05:29N 32°49' E 035°00'0 0.0
2016-Dec-02 04:32N 32°49' E 035°00'0 0.0
2016-Dec-02 03:32N 32°49' E 035°00'0 0.0
2016-Dec-02 02:29N 32°49' E 035°00'0 0.0
2016-Dec-02 01:32N 32°49' E 035°00'0 0.0
2016-Dec-02 00:32N 32°49' E 035°00'0 0.0
2016-Dec-01 23:32N 32°49' E 035°00'0 0.0
2016-Dec-01 22:29N 32°49' E 035°00'0 0.0
2016-Dec-01 21:32N 32°49' E 035°00'0 0.0
2016-Dec-01 20:32N 32°49' E 035°00'0 0.0
2016-Dec-01 19:32N 32°49' E 035°00'0 0.0
2016-Dec-01 18:32N 32°49' E 035°00'0 0.0
2016-Dec-01 17:17N 32°49' E 035°00'0 0.0
2016-Dec-01 16:32N 32°49' E 035°00'0 0.0
2016-Dec-01 15:32N 32°49' E 035°00'0 0.0
2016-Dec-01 14:29N 32°49' E 035°00'0 0.0
2016-Dec-01 13:32N 32°49' E 035°00'0 0.0
2016-Dec-01 12:29N 32°49' E 035°00'0 0.0
2016-Dec-01 11:32N 32°49' E 035°00'0 0.0
2016-Dec-01 10:29N 32°49' E 035°00'0 0.0
2016-Dec-01 09:32N 32°49' E 035°00'0 0.0
2016-Dec-01 08:32N 32°49' E 035°00'0 0.0
2016-Dec-01 07:32N 32°49' E 035°00'0 0.0
2016-Dec-01 06:32N 32°49' E 035°00'2 1.6
2016-Dec-01 05:33N 32°51' E 035°01'1111.3
2016-Dec-01 04:33N 32°54' E 034°48'1615.7
2016-Dec-01 03:31N 32°58' E 034°29'59817.6
2016-Nov-29 17:33N 37°39' E 023°43'1817.7
2016-Nov-29 16:33N 37°56' E 023°37'1 1.1
2016-Nov-29 15:31N 37°56' E 023°38'0 0.0
2016-Nov-29 14:31N 37°56' E 023°38'0 0.0
2016-Nov-29 13:31N 37°56' E 023°38'0 0.0
2016-Nov-29 12:31N 37°56' E 023°38'0 0.0
2016-Nov-29 11:31N 37°56' E 023°38'0 0.0
2016-Nov-29 10:31N 37°56' E 023°38'0 0.0
2016-Nov-29 09:31N 37°56' E 023°38'0 0.0
2016-Nov-29 08:31N 37°56' E 023°38'0 0.0
2016-Nov-29 07:31N 37°56' E 023°38'0 0.0
2016-Nov-29 06:31N 37°56' E 023°38'0 0.0
2016-Nov-29 05:33N 37°56' E 023°38'1 1.5
2016-Nov-29 04:33N 37°56' E 023°37'4 4.4
2016-Nov-29 03:33N 37°52' E 023°39'1313.5
2016-Nov-29 02:33N 37°39' E 023°45'1514.8
2016-Nov-29 01:33N 37°24' E 023°45'4714.8
2016-Nov-28 22:22N 36°40' E 023°24'16112.2
2016-Nov-28 09:10N 37°42' E 020°17'48614.8
2016-Nov-27 00:15N 44°13' E 013°55'1115.5
2016-Nov-26 23:33N 44°22' E 013°46'1515.5
2016-Nov-26 22:33N 44°35' E 013°36'1615.6
2016-Nov-26 21:33N 44°48' E 013°23'1615.6
2016-Nov-26 20:33N 44°60' E 013°09'1615.8
2016-Nov-26 19:33N 45°10' E 012°52'1615.6
2016-Nov-26 18:33N 45°20' E 012°35'1110.6
2016-Nov-26 17:33N 45°25' E 012°22'2 2.5
2016-Nov-26 16:34N 45°26' E 012°19'0 0.0
2016-Nov-26 15:34N 45°26' E 012°19'0 0.0
2016-Nov-26 14:33N 45°26' E 012°19'0 0.0
2016-Nov-26 13:33N 45°26' E 012°19'0 0.0
2016-Nov-26 12:33N 45°26' E 012°19'0 0.0
2016-Nov-26 11:33N 45°26' E 012°19'0 0.0
2016-Nov-26 10:33N 45°26' E 012°19'0 0.0
2016-Nov-26 09:33N 45°26' E 012°19'0 0.0
2016-Nov-26 08:33N 45°26' E 012°19'0 0.0
2016-Nov-26 07:33N 45°26' E 012°19'0 0.0
2016-Nov-26 06:33N 45°26' E 012°19'0 0.0
2016-Nov-26 05:33N 45°26' E 012°19'4 4.1
2016-Nov-26 04:33N 45°26' E 012°24'1413.6
2016-Nov-26 03:34N 45°19' E 012°41'1615.8
2016-Nov-26 02:34N 45°10' E 012°60'1615.5
2016-Nov-26 01:34N 44°59' E 013°16'1615.6
2016-Nov-26 00:34N 44°48' E 013°31'1615.9
2016-Nov-25 23:33N 44°35' E 013°43'1615.7
2016-Nov-25 22:34N 44°21' E 013°55'1615.7
2016-Nov-25 21:33N 44°08' E 014°07'  
2016-Nov-22 20:33N 37°35' E 023°43'1616.0
2016-Nov-22 19:33N 37°50' E 023°36'7 3.3
2016-Nov-22 17:31N 37°56' E 023°38'0 0.0
2016-Nov-22 16:31N 37°56' E 023°38'0 0.0
2016-Nov-22 15:31N 37°56' E 023°38'  

Dump ship's entire track history